Terminal Aerodrome Forecast
Issued by NWS Mt. Holly, NJ

Home | Current Version | Previous Version | Text Only | Print | Product List | Glossary On
Versions: 1 2 3 4 5 6 7 8 9 10 11 12 13 14 15 16 17 18 19 20 21 22 23 24
000
FTUS41 KPHI 261123
TAFPHL
TAF
KPHL 261123Z 2612/2718 03008KT P6SM FEW050 BKN200
     FM261900 33008KT P6SM SCT050 BKN250
     FM262300 29007KT P6SM BKN080
     FM270900 33007KT P6SM SCT080=

USA.gov is the U.S. government's official web portal to all federal, state and local government web resources and services.